Terminal Aerodrome Forecast
Issued by NWS Louisville, KY

Home | Current Version | Previous Version | Text Only | Print | Product List | Glossary On
Versions: 1 2 3 4 5 6 7 8 9 10 11 12 13 14 15 16 17 18 19
000
FTUS43 KLMK 211800 AAA
TAFLEX
TAF AMD
KLEX 211805Z 2118/2218 27014G24KT P6SM SCT030
     FM211900 30013G22KT P6SM FEW030
     FM220100 30007KT P6SM SCT040
     FM220900 02007KT P6SM SKC=

USA.gov is the U.S. government's official web portal to all federal, state and local government web resources and services.